createdAt,value
2022-07-30T00:02:18.461Z,1.70
2022-07-30T00:04:46.822Z,1.70
2022-07-30T00:07:14.411Z,1.70
2022-07-30T00:09:42.352Z,1.90
2022-07-30T00:12:10.821Z,2.00
2022-07-30T00:14:39.394Z,2.30
2022-07-30T00:17:07.823Z,1.70
2022-07-30T00:19:35.804Z,1.80
2022-07-30T00:22:06.105Z,1.60
2022-07-30T00:24:34.708Z,2.10
2022-07-30T00:27:03.663Z,1.90
2022-07-30T00:29:34.981Z,1.60
2022-07-30T00:32:06.257Z,1.80
2022-07-30T00:34:34.391Z,1.60
2022-07-30T00:37:03.113Z,1.70
2022-07-30T00:39:31.353Z,1.90
2022-07-30T00:42:04.691Z,1.60
2022-07-30T00:44:32.773Z,1.70
2022-07-30T00:47:00.863Z,1.60
2022-07-30T00:49:29.979Z,1.70
2022-07-30T00:51:59.330Z,1.40
2022-07-30T00:54:28.651Z,1.80
2022-07-30T00:56:58.641Z,1.60
2022-07-30T00:59:28.031Z,1.30
2022-07-30T01:01:56.442Z,1.80
2022-07-30T01:04:24.429Z,1.60
2022-07-30T01:06:53.009Z,1.40
2022-07-30T01:09:21.228Z,1.50
2022-07-30T01:11:49.331Z,1.70
2022-07-30T01:14:17.369Z,1.50
2022-07-30T01:16:46.814Z,1.30
2022-07-30T01:19:39.228Z,1.70
2022-07-30T01:22:16.264Z,1.40
2022-07-30T01:24:51.570Z,1.10
2022-07-30T01:27:20.729Z,1.60
2022-07-30T01:29:50.255Z,1.50
2022-07-30T01:32:20.189Z,1.40
2022-07-30T01:34:49.814Z,1.60
2022-07-30T01:37:20.319Z,1.40
2022-07-30T01:39:49.594Z,1.50
2022-07-30T01:42:19.706Z,1.10
2022-07-30T01:44:50.873Z,1.60
2022-07-30T01:47:20.448Z,1.40
2022-07-30T01:49:51.537Z,1.40
2022-07-30T01:52:20.827Z,1.70
2022-07-30T01:54:52.139Z,1.70
2022-07-30T01:57:21.868Z,1.20
2022-07-30T01:59:52.117Z,1.20
2022-07-30T02:02:20.116Z,1.40
2022-07-30T02:04:52.211Z,1.40
2022-07-30T02:07:24.508Z,1.50
2022-07-30T02:09:58.114Z,1.30
2022-07-30T02:12:31.466Z,1.60
2022-07-30T02:15:10.271Z,1.40
2022-07-30T02:17:45.173Z,1.50
2022-07-30T02:20:17.278Z,1.60
2022-07-30T02:22:47.235Z,1.60
2022-07-30T02:25:21.868Z,2.00
2022-07-30T02:27:56.005Z,1.40
2022-07-30T02:30:26.623Z,1.40
2022-07-30T02:33:00.952Z,1.40
2022-07-30T02:35:31.974Z,1.50
2022-07-30T02:38:01.673Z,1.50
2022-07-30T02:40:30.743Z,1.50
2022-07-30T02:43:01.574Z,1.60
2022-07-30T02:45:30.514Z,1.60
2022-07-30T02:48:02.146Z,1.20
2022-07-30T02:50:31.271Z,1.50
2022-07-30T02:53:01.173Z,1.80
2022-07-30T02:55:32.340Z,1.40
2022-07-30T02:58:01.444Z,1.30
2022-07-30T03:00:33.042Z,1.40
2022-07-30T03:03:02.319Z,1.30
2022-07-30T03:05:31.034Z,1.30
2022-07-30T03:08:02.687Z,1.60
2022-07-30T03:10:32.205Z,1.20
2022-07-30T03:13:01.394Z,1.20
2022-07-30T03:15:31.634Z,1.40
2022-07-30T03:18:01.741Z,1.40
2022-07-30T03:20:32.515Z,1.40
2022-07-30T03:23:04.021Z,1.30
2022-07-30T03:25:33.166Z,1.40
2022-07-30T03:28:04.620Z,1.20
2022-07-30T03:30:38.333Z,1.40
2022-07-30T03:33:07.284Z,1.40
2022-07-30T03:35:35.438Z,1.60
2022-07-30T03:38:04.268Z,1.60
2022-07-30T03:40:33.817Z,1.30
2022-07-30T03:43:01.591Z,1.50
2022-07-30T03:45:30.761Z,1.40
2022-07-30T03:47:59.386Z,1.50
2022-07-30T03:50:28.361Z,1.50
2022-07-30T03:52:56.840Z,1.50
2022-07-30T03:55:25.273Z,1.20
2022-07-30T03:57:52.976Z,1.30
2022-07-30T04:00:21.992Z,1.30
2022-07-30T04:02:49.792Z,1.50
2022-07-30T04:05:19.182Z,1.50
2022-07-30T04:07:47.993Z,1.60
2022-07-30T04:10:17.368Z,1.30
2022-07-30T04:12:45.439Z,1.30
2022-07-30T04:16:05.607Z,1.40
2022-07-30T04:18:04.686Z,1.50
2022-07-30T04:20:39.919Z,1.20
2022-07-30T04:23:09.825Z,1.40
2022-07-30T04:25:38.738Z,1.60
2022-07-30T04:28:07.318Z,1.50
2022-07-30T04:30:35.585Z,1.50
2022-07-30T04:33:05.672Z,1.40
2022-07-30T04:35:51.139Z,1.30
2022-07-30T04:38:21.544Z,1.10
2022-07-30T04:40:50.021Z,1.20
2022-07-30T04:43:18.671Z,0.90
2022-07-30T04:45:49.261Z,1.30
2022-07-30T04:48:21.864Z,1.50
2022-07-30T04:50:54.624Z,1.20
2022-07-30T04:53:22.878Z,1.20
2022-07-30T04:55:53.064Z,1.40
2022-07-30T04:58:22.937Z,1.20
2022-07-30T05:00:55.678Z,1.40
2022-07-30T05:03:24.878Z,1.20
2022-07-30T05:05:57.282Z,1.30
2022-07-30T05:08:26.480Z,1.30
2022-07-30T05:10:55.296Z,1.40
2022-07-30T05:13:23.211Z,1.70
2022-07-30T05:16:02.297Z,1.40
2022-07-30T05:18:34.767Z,1.50
2022-07-30T05:21:02.540Z,1.40
2022-07-30T05:23:31.013Z,1.50
2022-07-30T05:26:00.006Z,1.50
2022-07-30T05:28:32.649Z,1.60
2022-07-30T05:31:01.258Z,1.50
2022-07-30T05:33:41.294Z,1.40
2022-07-30T05:36:11.530Z,1.30
2022-07-30T05:38:40.412Z,1.50
2022-07-30T05:41:24.574Z,1.80
2022-07-30T05:44:00.527Z,1.40
2022-07-30T05:46:32.129Z,1.70
2022-07-30T05:49:00.407Z,1.30
2022-07-30T05:51:28.895Z,1.50
2022-07-30T05:53:58.756Z,1.50
2022-07-30T05:56:26.919Z,1.50
2022-07-30T05:58:54.644Z,1.80
2022-07-30T06:01:22.575Z,1.20
2022-07-30T06:03:50.202Z,1.40
2022-07-30T06:06:22.918Z,1.50
2022-07-30T06:08:51.181Z,1.50
2022-07-30T06:11:20.806Z,1.50
2022-07-30T06:13:48.288Z,1.30
2022-07-30T06:16:17.164Z,1.30
2022-07-30T06:18:45.058Z,1.40
2022-07-30T06:21:12.589Z,1.20
2022-07-30T06:23:40.146Z,1.10
2022-07-30T06:26:07.693Z,1.20
2022-07-30T06:28:37.962Z,1.00
2022-07-30T06:31:06.017Z,1.20
2022-07-30T06:33:34.648Z,1.30
2022-07-30T06:36:02.411Z,1.40
2022-07-30T06:38:30.256Z,1.50
2022-07-30T06:41:02.598Z,1.50
2022-07-30T06:43:32.026Z,1.70
2022-07-30T06:46:00.096Z,1.30
2022-07-30T06:48:29.557Z,1.30
2022-07-30T06:50:57.077Z,1.60
2022-07-30T06:53:24.614Z,1.50
2022-07-30T06:55:54.849Z,1.80
2022-07-30T06:58:28.548Z,1.40
2022-07-30T07:00:56.129Z,1.10
2022-07-30T07:03:25.575Z,1.60
2022-07-30T07:06:07.095Z,1.80
2022-07-30T07:08:37.154Z,1.50
2022-07-30T07:11:04.698Z,1.40
2022-07-30T07:13:32.306Z,1.60
2022-07-30T07:16:00.046Z,1.50
2022-07-30T07:18:27.668Z,1.70
2022-07-30T07:20:55.331Z,1.40
2022-07-30T07:23:22.919Z,1.50
2022-07-30T07:25:50.425Z,1.40
2022-07-30T07:28:18.367Z,1.40
2022-07-30T07:30:46.185Z,1.50
2022-07-30T07:33:15.702Z,1.40
2022-07-30T07:35:48.500Z,1.30
2022-07-30T07:38:17.369Z,1.60
2022-07-30T07:40:44.966Z,1.50
2022-07-30T07:43:12.882Z,1.70
2022-07-30T07:45:40.712Z,1.10
2022-07-30T07:48:08.839Z,1.20
2022-07-30T07:50:36.670Z,1.60
2022-07-30T07:53:04.812Z,1.30
2022-07-30T07:55:33.015Z,1.50
2022-07-30T07:58:01.852Z,1.30
2022-07-30T08:00:29.495Z,1.70
2022-07-30T08:02:57.286Z,1.50
2022-07-30T08:05:25.569Z,1.70
2022-07-30T08:08:13.264Z,1.60
2022-07-30T08:10:41.371Z,1.50
2022-07-30T08:13:48.849Z,1.50
2022-07-30T08:15:56.618Z,1.50
2022-07-30T08:18:24.171Z,1.40
2022-07-30T08:20:51.811Z,1.20
2022-07-30T08:23:21.591Z,1.40
2022-07-30T08:25:49.609Z,1.50
2022-07-30T08:28:34.176Z,1.40
2022-07-30T08:31:04.835Z,1.20
2022-07-30T08:33:32.540Z,1.60
2022-07-30T08:36:04.074Z,1.40
2022-07-30T08:38:32.331Z,1.40
2022-07-30T08:41:00.018Z,1.30
2022-07-30T08:43:28.872Z,1.60
2022-07-30T08:45:58.593Z,1.50
2022-07-30T08:48:26.579Z,1.50
2022-07-30T08:50:54.526Z,1.20
2022-07-30T08:53:23.389Z,1.40
2022-07-30T08:55:51.598Z,1.50
2022-07-30T08:58:27.490Z,1.50
2022-07-30T09:03:24.176Z,1.60
2022-07-30T09:05:51.814Z,2.10
2022-07-30T09:08:19.886Z,2.10
2022-07-30T09:10:53.310Z,1.20
2022-07-30T09:13:26.432Z,1.50
2022-07-30T09:15:55.167Z,1.60
2022-07-30T09:18:30.982Z,1.20
2022-07-30T09:21:01.457Z,1.50
2022-07-30T09:23:29.373Z,1.40
2022-07-30T09:26:00.229Z,1.90
2022-07-30T09:28:32.674Z,1.50
2022-07-30T09:31:01.026Z,1.80
2022-07-30T09:33:37.494Z,1.50
2022-07-30T09:36:07.008Z,1.80
2022-07-30T09:38:47.347Z,1.70
2022-07-30T09:41:36.239Z,1.50
2022-07-30T09:44:05.736Z,1.70
2022-07-30T09:46:46.504Z,1.80
2022-07-30T09:49:18.791Z,2.00
2022-07-30T09:51:55.786Z,1.90
2022-07-30T09:54:25.586Z,2.20
2022-07-30T09:57:25.555Z,1.80
2022-07-30T09:59:56.969Z,2.00
2022-07-30T10:02:32.353Z,1.70
2022-07-30T10:05:14.556Z,1.70
2022-07-30T10:07:51.289Z,1.80
2022-07-30T10:10:21.901Z,1.90
2022-07-30T10:12:57.762Z,2.10
2022-07-30T10:15:29.771Z,1.50
2022-07-30T10:17:58.040Z,2.00
2022-07-30T10:20:27.450Z,2.80
2022-07-30T10:22:55.835Z,1.80
2022-07-30T10:25:28.119Z,1.30
2022-07-30T10:27:57.033Z,2.50
2022-07-30T10:30:28.280Z,2.20
2022-07-30T10:32:58.122Z,2.10
2022-07-30T10:35:34.347Z,2.30
2022-07-30T10:38:13.967Z,2.70
2022-07-30T10:40:48.029Z,2.80
2022-07-30T10:43:44.191Z,2.30
2022-07-30T10:46:27.089Z,2.30
2022-07-30T10:48:56.758Z,2.50
2022-07-30T10:51:43.634Z,2.80
2022-07-30T10:54:40.241Z,2.70
2022-07-30T10:57:11.505Z,2.70
2022-07-30T11:00:15.617Z,3.00
2022-07-30T11:03:15.195Z,2.10
2022-07-30T11:05:45.911Z,2.60
2022-07-30T11:08:37.723Z,2.70
2022-07-30T11:12:05.844Z,3.10
2022-07-30T11:15:06.534Z,3.30
2022-07-30T11:18:01.410Z,2.90
2022-07-30T11:20:30.271Z,2.70
2022-07-30T11:23:14.017Z,2.20
2022-07-30T11:25:51.485Z,3.10
2022-07-30T11:28:36.535Z,2.90
2022-07-30T11:31:37.125Z,3.10
2022-07-30T11:34:29.817Z,3.00
2022-07-30T11:37:21.437Z,2.60
2022-07-30T11:40:11.574Z,3.80
2022-07-30T11:42:41.512Z,3.10
2022-07-30T11:45:28.720Z,3.10
2022-07-30T11:50:26.702Z,3.10
2022-07-30T11:52:56.133Z,3.00
2022-07-30T11:55:26.298Z,3.30
2022-07-30T11:57:54.518Z,4.00
2022-07-30T12:00:23.263Z,3.10
2022-07-30T12:05:27.534Z,3.40
2022-07-30T12:07:58.643Z,3.40
2022-07-30T12:10:27.016Z,3.70
2022-07-30T12:13:08.129Z,3.10
2022-07-30T12:15:38.333Z,3.90
2022-07-30T12:21:00.337Z,3.90
2022-07-30T12:23:29.632Z,3.60
2022-07-30T12:25:58.138Z,3.20
2022-07-30T12:28:28.600Z,4.50
2022-07-30T12:30:58.218Z,3.70
2022-07-30T12:33:26.078Z,4.10
2022-07-30T12:35:55.578Z,4.40
2022-07-30T12:38:24.735Z,4.80
2022-07-30T12:40:59.622Z,5.30
2022-07-30T12:43:48.010Z,5.10
2022-07-30T12:46:20.257Z,5.20
2022-07-30T12:48:56.317Z,5.00
2022-07-30T12:51:25.785Z,5.30
2022-07-30T12:53:55.042Z,6.10
2022-07-30T12:56:24.134Z,5.30
2022-07-30T12:58:52.149Z,5.60
2022-07-30T13:01:41.231Z,5.00
2022-07-30T13:04:09.500Z,4.60
2022-07-30T13:06:37.797Z,5.70
2022-07-30T13:09:06.248Z,5.10
2022-07-30T13:11:41.169Z,5.70
2022-07-30T13:14:10.243Z,5.60
2022-07-30T13:16:38.325Z,5.50
2022-07-30T13:19:06.903Z,6.10
2022-07-30T13:21:34.924Z,6.20
2022-07-30T13:24:02.452Z,6.40
2022-07-30T13:26:31.628Z,6.70
2022-07-30T13:29:01.823Z,6.10
2022-07-30T13:31:30.634Z,5.20
2022-07-30T13:34:10.365Z,5.70
2022-07-30T13:36:38.104Z,6.50
2022-07-30T13:39:05.607Z,6.50
2022-07-30T13:41:35.424Z,5.60
2022-07-30T13:44:03.310Z,6.00
2022-07-30T13:46:30.893Z,6.30
2022-07-30T13:48:59.236Z,6.70
2022-07-30T13:51:27.425Z,6.90
2022-07-30T13:53:56.231Z,7.10
2022-07-30T13:56:24.272Z,6.60
2022-07-30T13:58:52.676Z,6.40
2022-07-30T14:01:29.290Z,7.10
2022-07-30T14:03:57.404Z,6.20
2022-07-30T14:06:25.906Z,6.50
2022-07-30T14:08:54.587Z,7.10
2022-07-30T14:11:22.157Z,7.10
2022-07-30T14:13:49.730Z,6.40
2022-07-30T14:16:42.855Z,7.00
2022-07-30T14:19:08.312Z,6.20
2022-07-30T14:21:55.557Z,6.20
2022-07-30T14:24:23.258Z,5.80
2022-07-30T14:26:57.325Z,5.90
2022-07-30T14:29:27.183Z,6.50
2022-07-30T14:31:55.519Z,5.30
2022-07-30T14:34:23.546Z,6.00
2022-07-30T14:36:51.198Z,6.10
2022-07-30T14:39:19.797Z,5.90
2022-07-30T14:41:47.357Z,5.50
2022-07-30T14:44:16.479Z,4.50
2022-07-30T14:46:52.345Z,3.60
2022-07-30T14:49:22.579Z,3.40
2022-07-30T14:51:50.705Z,4.20
2022-07-30T14:54:18.876Z,3.70
2022-07-30T14:56:46.598Z,3.90
2022-07-30T14:59:14.764Z,3.60
2022-07-30T15:01:43.190Z,4.10
2022-07-30T15:04:11.792Z,3.80
2022-07-30T15:06:41.068Z,3.40
2022-07-30T15:09:09.394Z,3.20
2022-07-30T15:12:04.284Z,3.90
2022-07-30T15:14:26.383Z,4.00
2022-07-30T15:17:01.992Z,3.70
2022-07-30T15:19:31.623Z,3.50
2022-07-30T15:22:01.182Z,2.90
2022-07-30T15:24:29.846Z,3.30
2022-07-30T15:26:57.379Z,3.10
2022-07-30T15:29:29.902Z,3.50
2022-07-30T15:31:59.454Z,2.50
2022-07-30T15:34:27.986Z,2.70
2022-07-30T15:36:55.611Z,3.10
2022-07-30T15:39:23.213Z,3.20
2022-07-30T15:41:53.387Z,2.90
2022-07-30T15:44:21.221Z,3.10
2022-07-30T15:46:48.849Z,3.20
2022-07-30T15:49:16.539Z,3.30
2022-07-30T15:51:48.036Z,2.80
2022-07-30T15:54:25.651Z,3.50
2022-07-30T15:56:54.128Z,3.30
2022-07-30T15:59:29.475Z,3.60
2022-07-30T16:01:57.274Z,4.50
2022-07-30T16:04:31.262Z,3.40
2022-07-30T16:06:59.990Z,4.00
2022-07-30T16:09:27.846Z,4.50
2022-07-30T16:11:56.042Z,4.80
2022-07-30T16:14:24.090Z,4.40
2022-07-30T16:16:52.029Z,4.50
2022-07-30T16:19:19.861Z,4.50
2022-07-30T16:21:47.520Z,4.40
2022-07-30T16:24:15.075Z,4.60
2022-07-30T16:26:42.890Z,3.90
2022-07-30T16:29:13.729Z,3.60
2022-07-30T16:31:41.617Z,5.20
2022-07-30T16:34:09.201Z,4.90
2022-07-30T16:36:36.900Z,5.40
2022-07-30T16:39:05.301Z,4.50
2022-07-30T16:41:32.992Z,3.80
2022-07-30T16:44:00.670Z,4.10
2022-07-30T16:46:28.706Z,4.30
2022-07-30T16:48:56.415Z,5.20
2022-07-30T16:51:24.034Z,4.50
2022-07-30T16:53:51.851Z,3.70
2022-07-30T16:56:19.581Z,4.70
2022-07-30T16:58:47.200Z,4.60
2022-07-30T17:01:15.043Z,4.40
2022-07-30T17:03:42.962Z,4.40
2022-07-30T17:06:10.569Z,4.90
2022-07-30T17:08:38.303Z,4.10
2022-07-30T17:11:09.811Z,4.10
2022-07-30T17:13:39.742Z,4.80
2022-07-30T17:16:07.366Z,3.50
2022-07-30T17:18:34.973Z,4.10
2022-07-30T17:21:03.163Z,3.90
2022-07-30T17:23:30.766Z,2.50
2022-07-30T17:25:58.375Z,3.60
2022-07-30T17:28:26.923Z,3.50
2022-07-30T17:30:55.130Z,3.90
2022-07-30T17:33:22.663Z,3.40
2022-07-30T17:35:50.259Z,3.20
2022-07-30T17:38:17.809Z,3.70
2022-07-30T17:40:45.460Z,3.10
2022-07-30T17:43:14.249Z,2.80
2022-07-30T17:45:42.412Z,2.80
2022-07-30T17:48:10.214Z,3.50
2022-07-30T17:50:37.961Z,2.50
2022-07-30T17:53:05.628Z,3.10
2022-07-30T17:55:34.605Z,3.00
2022-07-30T17:58:02.459Z,2.70
2022-07-30T18:00:30.274Z,2.60
2022-07-30T18:02:57.817Z,2.90
2022-07-30T18:05:25.513Z,3.30
2022-07-30T18:07:53.039Z,3.40
2022-07-30T18:10:20.801Z,3.00
2022-07-30T18:12:49.595Z,3.20
2022-07-30T18:15:17.589Z,2.70
2022-07-30T18:17:45.203Z,2.80
2022-07-30T18:20:13.391Z,3.10
2022-07-30T18:22:41.275Z,3.10
2022-07-30T18:25:18.068Z,2.70
2022-07-30T18:27:47.321Z,2.80
2022-07-30T18:30:15.082Z,3.30
2022-07-30T18:32:42.703Z,3.20
2022-07-30T18:35:14.533Z,2.80
2022-07-30T18:37:43.645Z,2.60
2022-07-30T18:40:14.064Z,2.90
2022-07-30T18:42:42.679Z,2.20
2022-07-30T18:45:13.259Z,2.40
2022-07-30T18:47:40.974Z,2.70
2022-07-30T18:50:10.336Z,3.10
2022-07-30T18:52:38.422Z,2.50
2022-07-30T18:55:10.701Z,1.70
2022-07-30T18:57:38.651Z,2.60
2022-07-30T19:00:10.456Z,2.30
2022-07-30T19:02:58.779Z,2.10
2022-07-30T19:05:26.659Z,2.00
2022-07-30T19:07:57.396Z,2.10
2022-07-30T19:10:26.957Z,1.80
2022-07-30T19:12:55.767Z,2.40
2022-07-30T19:15:23.806Z,1.80
2022-07-30T19:17:51.539Z,1.70
2022-07-30T19:20:20.217Z,1.90
2022-07-30T19:22:47.909Z,2.00
2022-07-30T19:25:17.464Z,1.70
2022-07-30T19:27:45.256Z,1.80
2022-07-30T19:30:14.318Z,2.00
2022-07-30T19:32:43.223Z,1.70
2022-07-30T19:35:14.431Z,1.50
2022-07-30T19:37:42.776Z,2.00
2022-07-30T19:40:12.963Z,1.90
2022-07-30T19:48:29.168Z,1.90
2022-07-30T19:51:00.697Z,2.40
2022-07-30T19:53:31.522Z,2.20
2022-07-30T19:56:08.363Z,2.40
2022-07-30T19:58:40.074Z,2.00
2022-07-30T20:01:10.522Z,2.10
2022-07-30T20:03:39.775Z,1.90
2022-07-30T20:06:08.463Z,1.70
2022-07-30T20:08:44.685Z,1.70
2022-07-30T20:11:35.073Z,1.80
2022-07-30T20:14:02.352Z,1.70
2022-07-30T20:16:31.551Z,1.60
2022-07-30T20:19:00.122Z,2.00
2022-07-30T20:21:56.987Z,2.10
2022-07-30T20:24:18.988Z,2.00
2022-07-30T20:26:46.537Z,2.10
2022-07-30T20:29:18.780Z,1.90
2022-07-30T20:32:00.401Z,1.90
2022-07-30T20:34:30.132Z,1.40
2022-07-30T20:37:15.863Z,1.80
2022-07-30T20:39:47.919Z,1.50
2022-07-30T20:42:16.922Z,1.70
2022-07-30T20:44:49.455Z,1.80
2022-07-30T20:47:34.791Z,1.70
2022-07-30T20:50:11.845Z,1.70
2022-07-30T20:52:46.733Z,1.90
2022-07-30T20:55:17.051Z,1.60
2022-07-30T20:57:58.075Z,2.50
2022-07-30T21:00:33.868Z,2.10
2022-07-30T21:05:51.180Z,2.00
2022-07-30T21:08:25.284Z,1.90
2022-07-30T21:10:53.479Z,1.80
2022-07-30T21:13:25.038Z,1.60
2022-07-30T21:16:01.983Z,1.40
2022-07-30T21:18:31.103Z,1.70
2022-07-30T21:20:58.727Z,1.70
2022-07-30T21:23:28.395Z,1.60
2022-07-30T21:26:01.369Z,1.60
2022-07-30T21:28:35.306Z,1.30
2022-07-30T21:31:07.461Z,1.50
2022-07-30T21:33:35.804Z,1.50
2022-07-30T21:36:04.203Z,1.50
2022-07-30T21:38:33.893Z,1.60
2022-07-30T21:41:01.747Z,1.40
2022-07-30T21:43:30.565Z,1.40
2022-07-30T21:46:03.714Z,1.40
2022-07-30T21:48:34.765Z,1.60
2022-07-30T21:51:03.755Z,1.90
2022-07-30T21:53:46.097Z,1.50
2022-07-30T21:56:15.978Z,1.80
2022-07-30T21:58:44.572Z,1.40
2022-07-30T22:01:17.719Z,1.60
2022-07-30T22:04:04.842Z,1.90
2022-07-30T22:06:34.596Z,1.60
2022-07-30T22:09:03.429Z,1.90
2022-07-30T22:11:42.561Z,2.00
2022-07-30T22:14:13.234Z,1.60
2022-07-30T22:16:44.607Z,1.70
2022-07-30T22:19:15.089Z,1.70
2022-07-30T22:21:46.428Z,1.80
2022-07-30T22:24:28.909Z,1.90
2022-07-30T22:27:00.001Z,1.80
2022-07-30T22:29:34.338Z,1.60
2022-07-30T22:32:04.090Z,1.90
2022-07-30T22:34:32.112Z,1.70
2022-07-30T22:36:59.624Z,2.40
2022-07-30T22:42:15.658Z,1.90
2022-07-30T22:44:45.800Z,2.00
2022-07-30T22:47:21.229Z,2.10
2022-07-30T22:49:55.005Z,2.30
2022-07-30T22:52:27.250Z,2.10
2022-07-30T22:55:08.497Z,2.00
2022-07-30T22:57:38.111Z,1.80
2022-07-30T23:00:11.742Z,1.90
2022-07-30T23:02:39.666Z,1.80
2022-07-30T23:05:09.958Z,2.30
2022-07-30T23:07:41.454Z,1.90
2022-07-30T23:10:17.182Z,1.70
2022-07-30T23:12:15.037Z,1.80
2022-07-30T23:12:17.057Z,1.70
2022-07-30T23:12:26.729Z,1.70
2022-07-30T23:12:29.024Z,1.80
2022-07-30T23:12:48.483Z,1.90
2022-07-30T23:15:17.856Z,2.10
2022-07-30T23:17:47.031Z,2.10
2022-07-30T23:20:17.683Z,2.20
2022-07-30T23:22:45.977Z,2.10
2022-07-30T23:25:13.859Z,2.30
2022-07-30T23:27:42.914Z,2.20
2022-07-30T23:30:13.060Z,2.20
2022-07-30T23:32:41.818Z,1.70
2022-07-30T23:35:10.790Z,2.70
2022-07-30T23:37:48.966Z,2.90
2022-07-30T23:40:18.669Z,2.90
2022-07-30T23:42:47.092Z,2.70
2022-07-30T23:45:15.022Z,2.80
2022-07-30T23:48:02.108Z,2.90
2022-07-30T23:50:31.801Z,2.70
2022-07-30T23:52:59.469Z,2.70
2022-07-30T23:55:27.840Z,2.90
2022-07-30T23:57:56.059Z,3.10
